Terminal Aerodrome Forecast
Issued by NWS Portland, OR

Home | Current Version | Previous Version | Text Only | Print | Product List | Glossary On
Versions: 1 2 3 4 5 6 7 8 9 10 11 12 13
000
FTUS46 KPQR 241120
TAFSLE
TAF
KSLE 241120Z 2412/2512 00000KT 4SM BR FEW001
     FM241300 00000KT 1/2SM FG VV002
     FM241700 00000KT 1SM BR BKN004
     FM241900 VRB03KT 5SM BR SCT004 BKN008
     FM242000 VRB03KT 6SM BR SCT010=

USA.gov is the U.S. government's official web portal to all federal, state and local government web resources and services.